Terminal Aerodrome Forecast
Issued by NWS Sioux Falls, SD

Home | Current Version | Previous Version | Graphics & Text | Print | Product List | Glossary On
Versions: 1 2 3 4 5 6 7 8 9 10 11 12 13 14 15 16 17 18 19 20
998
FTUS43 KFSD 141905 AAD
TAFFSD
TAF AMD
KFSD 141905Z 1419/1518 20012G19KT P6SM OVC008
     FM142000 20011KT P6SM OVC011
     FM142230 21008KT P6SM SCT012 BKN180
     FM150100 25006KT P6SM BKN200
     FM150300 31011KT P6SM SCT025
     FM150900 31009KT P6SM FEW200
     FM151500 31013G21KT P6SM SCT020=

USA.gov is the U.S. government's official web portal to all federal, state and local government web resources and services.